sensor_id;sensor_type;location;lat;lon;timestamp;temperature;humidity
770;DHT22;368;48.698;9.116;2023-04-24T00:01:55;9.80;99.90
770;DHT22;368;48.698;9.116;2023-04-24T00:04:23;9.80;99.90
770;DHT22;368;48.698;9.116;2023-04-24T00:06:51;9.90;99.90
770;DHT22;368;48.698;9.116;2023-04-24T00:09:20;9.70;99.90
770;DHT22;368;48.698;9.116;2023-04-24T00:11:46;9.80;99.90
770;DHT22;368;48.698;9.116;2023-04-24T00:14:13;9.80;99.90
770;DHT22;368;48.698;9.116;2023-04-24T00:16:40;9.80;99.90
770;DHT22;368;48.698;9.116;2023-04-24T00:19:08;9.70;99.90
770;DHT22;368;48.698;9.116;2023-04-24T00:21:36;9.80;99.90
770;DHT22;368;48.698;9.116;2023-04-24T00:24:03;9.80;99.90
770;DHT22;368;48.698;9.116;2023-04-24T00:26:30;9.90;99.90
770;DHT22;368;48.698;9.116;2023-04-24T00:28:57;10.00;99.90
770;DHT22;368;48.698;9.116;2023-04-24T00:31:23;10.00;99.90
770;DHT22;368;48.698;9.116;2023-04-24T00:33:50;9.80;99.90
770;DHT22;368;48.698;9.116;2023-04-24T00:36:18;9.80;99.90
770;DHT22;368;48.698;9.116;2023-04-24T00:38:46;10.10;99.90
770;DHT22;368;48.698;9.116;2023-04-24T00:41:12;10.00;99.90
770;DHT22;368;48.698;9.116;2023-04-24T00:43:39;10.00;99.90
770;DHT22;368;48.698;9.116;2023-04-24T00:46:06;10.10;99.90
770;DHT22;368;48.698;9.116;2023-04-24T00:48:34;10.00;99.90
770;DHT22;368;48.698;9.116;2023-04-24T00:51:01;10.10;99.90
770;DHT22;368;48.698;9.116;2023-04-24T00:53:29;10.20;99.90
770;DHT22;368;48.698;9.116;2023-04-24T00:55:56;10.00;99.90
770;DHT22;368;48.698;9.116;2023-04-24T00:58:24;10.10;99.90
770;DHT22;368;48.698;9.116;2023-04-24T01:00:51;10.10;99.90
770;DHT22;368;48.698;9.116;2023-04-24T01:03:19;10.10;99.90
770;DHT22;368;48.698;9.116;2023-04-24T01:05:49;10.20;99.90
770;DHT22;368;48.698;9.116;2023-04-24T01:08:16;10.10;99.90
770;DHT22;368;48.698;9.116;2023-04-24T01:10:44;10.00;99.90
770;DHT22;368;48.698;9.116;2023-04-24T01:13:12;10.40;99.90
770;DHT22;368;48.698;9.116;2023-04-24T01:15:39;10.00;99.90
770;DHT22;368;48.698;9.116;2023-04-24T01:18:06;10.40;99.90
770;DHT22;368;48.698;9.116;2023-04-24T01:20:33;10.30;99.90
770;DHT22;368;48.698;9.116;2023-04-24T01:23:03;10.40;99.90
770;DHT22;368;48.698;9.116;2023-04-24T01:25:30;10.20;99.90
770;DHT22;368;48.698;9.116;2023-04-24T01:27:57;10.20;99.90
770;DHT22;368;48.698;9.116;2023-04-24T01:30:24;10.40;99.90
770;DHT22;368;48.698;9.116;2023-04-24T01:32:52;10.20;99.90
770;DHT22;368;48.698;9.116;2023-04-24T01:35:20;10.00;99.90
770;DHT22;368;48.698;9.116;2023-04-24T01:37:47;9.90;99.90
770;DHT22;368;48.698;9.116;2023-04-24T01:40:15;10.20;99.90
770;DHT22;368;48.698;9.116;2023-04-24T01:42:42;10.40;99.90
770;DHT22;368;48.698;9.116;2023-04-24T01:45:10;10.00;99.90
770;DHT22;368;48.698;9.116;2023-04-24T01:47:38;10.20;99.90
770;DHT22;368;48.698;9.116;2023-04-24T01:50:06;10.30;99.90
770;DHT22;368;48.698;9.116;2023-04-24T01:52:33;10.20;99.90
770;DHT22;368;48.698;9.116;2023-04-24T01:55:01;10.30;99.90
770;DHT22;368;48.698;9.116;2023-04-24T01:57:31;10.30;99.90
770;DHT22;368;48.698;9.116;2023-04-24T01:59:58;10.20;99.90
770;DHT22;368;48.698;9.116;2023-04-24T02:02:24;10.20;99.90
770;DHT22;368;48.698;9.116;2023-04-24T02:04:53;10.00;99.90
770;DHT22;368;48.698;9.116;2023-04-24T02:07:19;10.10;99.90
770;DHT22;368;48.698;9.116;2023-04-24T02:09:46;10.20;99.90
770;DHT22;368;48.698;9.116;2023-04-24T02:12:14;10.20;99.90
770;DHT22;368;48.698;9.116;2023-04-24T02:14:44;10.00;99.90
770;DHT22;368;48.698;9.116;2023-04-24T02:17:10;10.00;99.90
770;DHT22;368;48.698;9.116;2023-04-24T02:19:37;10.10;99.90
770;DHT22;368;48.698;9.116;2023-04-24T02:22:04;9.80;99.90
770;DHT22;368;48.698;9.116;2023-04-24T02:24:31;9.90;99.90
770;DHT22;368;48.698;9.116;2023-04-24T02:26:58;9.70;99.90
770;DHT22;368;48.698;9.116;2023-04-24T02:29:25;9.70;99.90
770;DHT22;368;48.698;9.116;2023-04-24T02:31:53;9.70;99.90
770;DHT22;368;48.698;9.116;2023-04-24T02:34:20;9.70;99.90
770;DHT22;368;48.698;9.116;2023-04-24T02:36:48;9.80;99.90
770;DHT22;368;48.698;9.116;2023-04-24T02:39:15;9.50;99.90
770;DHT22;368;48.698;9.116;2023-04-24T02:41:42;9.80;99.90
770;DHT22;368;48.698;9.116;2023-04-24T02:44:09;10.00;99.90
770;DHT22;368;48.698;9.116;2023-04-24T02:46:36;10.00;99.90
770;DHT22;368;48.698;9.116;2023-04-24T02:49:04;9.60;99.90
770;DHT22;368;48.698;9.116;2023-04-24T02:51:31;9.70;99.90
770;DHT22;368;48.698;9.116;2023-04-24T02:53:58;9.60;99.90
770;DHT22;368;48.698;9.116;2023-04-24T02:56:25;9.40;99.90
770;DHT22;368;48.698;9.116;2023-04-24T02:58:51;9.60;99.90
770;DHT22;368;48.698;9.116;2023-04-24T03:01:18;9.60;99.90
770;DHT22;368;48.698;9.116;2023-04-24T03:03:45;9.90;99.90
770;DHT22;368;48.698;9.116;2023-04-24T03:06:13;9.70;99.90
770;DHT22;368;48.698;9.116;2023-04-24T03:08:41;9.90;99.90
770;DHT22;368;48.698;9.116;2023-04-24T03:11:07;10.00;99.90
770;DHT22;368;48.698;9.116;2023-04-24T03:13:34;9.80;99.90
770;DHT22;368;48.698;9.116;2023-04-24T03:16:01;9.80;99.90
770;DHT22;368;48.698;9.116;2023-04-24T03:18:28;9.70;99.90
770;DHT22;368;48.698;9.116;2023-04-24T03:20:55;9.60;99.90
770;DHT22;368;48.698;9.116;2023-04-24T03:23:23;9.50;99.90
770;DHT22;368;48.698;9.116;2023-04-24T03:25:49;9.60;99.90
770;DHT22;368;48.698;9.116;2023-04-24T03:28:16;9.40;99.90
770;DHT22;368;48.698;9.116;2023-04-24T03:30:43;9.60;99.90
770;DHT22;368;48.698;9.116;2023-04-24T03:33:10;9.50;99.90
770;DHT22;368;48.698;9.116;2023-04-24T03:35:37;9.40;99.90
770;DHT22;368;48.698;9.116;2023-04-24T03:38:03;9.40;99.90
770;DHT22;368;48.698;9.116;2023-04-24T03:40:32;9.60;99.90
770;DHT22;368;48.698;9.116;2023-04-24T03:42:59;9.30;99.90
770;DHT22;368;48.698;9.116;2023-04-24T03:45:26;9.30;99.90
770;DHT22;368;48.698;9.116;2023-04-24T03:47:53;9.10;99.90
770;DHT22;368;48.698;9.116;2023-04-24T03:50:19;9.40;99.90
770;DHT22;368;48.698;9.116;2023-04-24T03:52:46;9.20;99.90
770;DHT22;368;48.698;9.116;2023-04-24T03:55:13;9.40;99.90
770;DHT22;368;48.698;9.116;2023-04-24T03:57:41;9.20;99.90
770;DHT22;368;48.698;9.116;2023-04-24T04:00:09;9.20;99.90
770;DHT22;368;48.698;9.116;2023-04-24T04:02:36;9.40;99.90
770;DHT22;368;48.698;9.116;2023-04-24T04:05:03;9.10;99.90
770;DHT22;368;48.698;9.116;2023-04-24T04:07:30;9.20;99.90
770;DHT22;368;48.698;9.116;2023-04-24T04:09:57;9.30;99.90
770;DHT22;368;48.698;9.116;2023-04-24T04:12:24;9.30;99.90
770;DHT22;368;48.698;9.116;2023-04-24T04:14:52;9.30;99.90
770;DHT22;368;48.698;9.116;2023-04-24T04:17:18;9.30;99.90
770;DHT22;368;48.698;9.116;2023-04-24T04:19:45;9.50;99.90
770;DHT22;368;48.698;9.116;2023-04-24T04:22:12;9.20;99.90
770;DHT22;368;48.698;9.116;2023-04-24T04:24:39;9.60;99.90
770;DHT22;368;48.698;9.116;2023-04-24T04:27:06;9.40;99.90
770;DHT22;368;48.698;9.116;2023-04-24T04:29:33;9.50;99.90
770;DHT22;368;48.698;9.116;2023-04-24T04:32:02;9.50;99.90
770;DHT22;368;48.698;9.116;2023-04-24T04:34:29;9.30;99.90
770;DHT22;368;48.698;9.116;2023-04-24T04:36:57;9.30;99.90
770;DHT22;368;48.698;9.116;2023-04-24T04:39:24;8.90;99.90
770;DHT22;368;48.698;9.116;2023-04-24T04:41:53;8.80;99.90
770;DHT22;368;48.698;9.116;2023-04-24T04:44:20;8.70;99.90
770;DHT22;368;48.698;9.116;2023-04-24T04:46:47;8.40;99.90
770;DHT22;368;48.698;9.116;2023-04-24T04:49:15;8.40;99.90
770;DHT22;368;48.698;9.116;2023-04-24T04:51:42;8.20;99.90
770;DHT22;368;48.698;9.116;2023-04-24T04:54:09;8.30;99.90
770;DHT22;368;48.698;9.116;2023-04-24T04:56:35;8.20;99.90
770;DHT22;368;48.698;9.116;2023-04-24T04:59:02;8.10;99.90
770;DHT22;368;48.698;9.116;2023-04-24T05:01:29;8.10;99.90
770;DHT22;368;48.698;9.116;2023-04-24T05:03:56;8.20;99.90
770;DHT22;368;48.698;9.116;2023-04-24T05:06:24;8.20;99.90
770;DHT22;368;48.698;9.116;2023-04-24T05:08:51;8.10;99.90
770;DHT22;368;48.698;9.116;2023-04-24T05:11:22;8.10;99.90
770;DHT22;368;48.698;9.116;2023-04-24T05:13:49;8.20;99.90
770;DHT22;368;48.698;9.116;2023-04-24T05:16:16;8.30;99.90
770;DHT22;368;48.698;9.116;2023-04-24T05:18:42;8.10;99.90
770;DHT22;368;48.698;9.116;2023-04-24T05:21:09;8.20;99.90
770;DHT22;368;48.698;9.116;2023-04-24T05:23:37;8.20;99.90
770;DHT22;368;48.698;9.116;2023-04-24T05:26:04;8.20;99.90
770;DHT22;368;48.698;9.116;2023-04-24T05:28:31;8.60;99.90
770;DHT22;368;48.698;9.116;2023-04-24T05:30:58;8.50;99.90
770;DHT22;368;48.698;9.116;2023-04-24T05:33:26;8.20;99.90
770;DHT22;368;48.698;9.116;2023-04-24T05:35:53;8.30;99.90
770;DHT22;368;48.698;9.116;2023-04-24T05:38:20;8.60;99.90
770;DHT22;368;48.698;9.116;2023-04-24T05:40:48;8.50;99.90
770;DHT22;368;48.698;9.116;2023-04-24T05:43:15;8.60;99.90
770;DHT22;368;48.698;9.116;2023-04-24T05:45:41;8.60;99.90
770;DHT22;368;48.698;9.116;2023-04-24T05:48:08;8.60;99.90
770;DHT22;368;48.698;9.116;2023-04-24T05:50:35;8.70;99.90
770;DHT22;368;48.698;9.116;2023-04-24T05:53:02;8.70;99.90
770;DHT22;368;48.698;9.116;2023-04-24T05:55:31;8.80;99.90
770;DHT22;368;48.698;9.116;2023-04-24T05:57:59;8.60;99.90
770;DHT22;368;48.698;9.116;2023-04-24T06:00:26;8.60;99.90
770;DHT22;368;48.698;9.116;2023-04-24T06:02:54;8.60;99.90
770;DHT22;368;48.698;9.116;2023-04-24T06:05:20;8.70;99.90
770;DHT22;368;48.698;9.116;2023-04-24T06:07:47;8.90;99.90
770;DHT22;368;48.698;9.116;2023-04-24T06:10:14;8.70;99.90
770;DHT22;368;48.698;9.116;2023-04-24T06:12:41;8.80;99.90
770;DHT22;368;48.698;9.116;2023-04-24T06:15:10;8.80;99.90
770;DHT22;368;48.698;9.116;2023-04-24T06:17:37;9.10;99.90
770;DHT22;368;48.698;9.116;2023-04-24T06:20:04;10.00;99.90
770;DHT22;368;48.698;9.116;2023-04-24T06:22:32;10.40;99.90
770;DHT22;368;48.698;9.116;2023-04-24T06:24:59;10.70;99.90
770;DHT22;368;48.698;9.116;2023-04-24T06:27:26;10.90;99.90
770;DHT22;368;48.698;9.116;2023-04-24T06:29:53;11.30;99.90
770;DHT22;368;48.698;9.116;2023-04-24T06:32:22;11.60;99.90
770;DHT22;368;48.698;9.116;2023-04-24T06:34:50;12.10;99.90
770;DHT22;368;48.698;9.116;2023-04-24T06:37:18;12.20;99.90
770;DHT22;368;48.698;9.116;2023-04-24T06:39:46;12.60;99.90
770;DHT22;368;48.698;9.116;2023-04-24T06:42:13;12.50;99.90
770;DHT22;368;48.698;9.116;2023-04-24T06:44:39;12.10;99.90
770;DHT22;368;48.698;9.116;2023-04-24T06:47:07;11.20;99.90
770;DHT22;368;48.698;9.116;2023-04-24T06:49:36;10.80;99.90
770;DHT22;368;48.698;9.116;2023-04-24T06:52:03;11.90;99.90
770;DHT22;368;48.698;9.116;2023-04-24T06:54:30;11.80;99.90
770;DHT22;368;48.698;9.116;2023-04-24T06:56:57;11.90;99.90
770;DHT22;368;48.698;9.116;2023-04-24T06:59:24;11.70;99.90
770;DHT22;368;48.698;9.116;2023-04-24T07:01:51;11.30;99.90
770;DHT22;368;48.698;9.116;2023-04-24T07:04:17;11.70;99.90
770;DHT22;368;48.698;9.116;2023-04-24T07:06:46;11.70;99.90
770;DHT22;368;48.698;9.116;2023-04-24T07:09:13;11.90;99.90
770;DHT22;368;48.698;9.116;2023-04-24T07:11:41;11.60;99.90
770;DHT22;368;48.698;9.116;2023-04-24T07:14:08;10.60;99.90
770;DHT22;368;48.698;9.116;2023-04-24T07:16:35;10.20;99.90
770;DHT22;368;48.698;9.116;2023-04-24T07:19:02;10.10;99.90
770;DHT22;368;48.698;9.116;2023-04-24T07:21:29;10.00;99.90
770;DHT22;368;48.698;9.116;2023-04-24T07:23:58;9.70;99.90
770;DHT22;368;48.698;9.116;2023-04-24T07:26:25;9.60;99.90
770;DHT22;368;48.698;9.116;2023-04-24T07:28:53;9.30;99.90
770;DHT22;368;48.698;9.116;2023-04-24T07:31:20;9.30;99.90
770;DHT22;368;48.698;9.116;2023-04-24T07:33:47;9.70;99.90
770;DHT22;368;48.698;9.116;2023-04-24T07:36:14;9.60;99.90
770;DHT22;368;48.698;9.116;2023-04-24T07:38:44;10.90;99.90
770;DHT22;368;48.698;9.116;2023-04-24T07:41:12;11.50;99.90
770;DHT22;368;48.698;9.116;2023-04-24T07:43:39;12.40;99.90
770;DHT22;368;48.698;9.116;2023-04-24T07:46:06;12.80;99.90
770;DHT22;368;48.698;9.116;2023-04-24T07:48:33;13.40;99.90
770;DHT22;368;48.698;9.116;2023-04-24T07:51:00;13.50;99.90
770;DHT22;368;48.698;9.116;2023-04-24T07:53:27;13.40;99.90
770;DHT22;368;48.698;9.116;2023-04-24T07:55:54;12.90;99.90
770;DHT22;368;48.698;9.116;2023-04-24T07:58:22;12.80;99.90
770;DHT22;368;48.698;9.116;2023-04-24T08:00:49;12.00;99.90
770;DHT22;368;48.698;9.116;2023-04-24T08:03:16;11.80;99.90
770;DHT22;368;48.698;9.116;2023-04-24T08:05:45;12.20;99.90
770;DHT22;368;48.698;9.116;2023-04-24T08:08:12;12.50;99.90
770;DHT22;368;48.698;9.116;2023-04-24T08:10:39;11.80;99.50
770;DHT22;368;48.698;9.116;2023-04-24T08:13:05;11.40;99.90
770;DHT22;368;48.698;9.116;2023-04-24T08:15:34;11.70;99.90
770;DHT22;368;48.698;9.116;2023-04-24T08:18:01;11.50;99.90
770;DHT22;368;48.698;9.116;2023-04-24T08:20:27;11.40;99.90
770;DHT22;368;48.698;9.116;2023-04-24T08:22:55;11.70;99.90
770;DHT22;368;48.698;9.116;2023-04-24T08:25:22;11.70;99.90
770;DHT22;368;48.698;9.116;2023-04-24T08:27:50;11.80;99.90
770;DHT22;368;48.698;9.116;2023-04-24T08:30:17;11.80;99.70
770;DHT22;368;48.698;9.116;2023-04-24T08:32:45;12.80;99.50
770;DHT22;368;48.698;9.116;2023-04-24T08:35:12;12.40;99.00
770;DHT22;368;48.698;9.116;2023-04-24T08:37:39;13.70;97.90
770;DHT22;368;48.698;9.116;2023-04-24T08:40:11;13.90;96.90
770;DHT22;368;48.698;9.116;2023-04-24T08:42:39;14.00;94.70
770;DHT22;368;48.698;9.116;2023-04-24T08:45:09;13.80;93.90
770;DHT22;368;48.698;9.116;2023-04-24T08:47:37;13.60;95.30
770;DHT22;368;48.698;9.116;2023-04-24T08:50:07;13.00;96.40
770;DHT22;368;48.698;9.116;2023-04-24T08:52:34;12.20;94.80
770;DHT22;368;48.698;9.116;2023-04-24T08:55:01;11.40;96.60
770;DHT22;368;48.698;9.116;2023-04-24T08:57:29;11.20;96.20
770;DHT22;368;48.698;9.116;2023-04-24T08:59:58;11.60;97.60
770;DHT22;368;48.698;9.116;2023-04-24T09:02:25;12.10;96.40
770;DHT22;368;48.698;9.116;2023-04-24T09:04:52;12.60;95.70
770;DHT22;368;48.698;9.116;2023-04-24T09:07:22;13.70;93.30
770;DHT22;368;48.698;9.116;2023-04-24T09:09:51;14.00;93.80
770;DHT22;368;48.698;9.116;2023-04-24T09:12:18;15.00;92.50
770;DHT22;368;48.698;9.116;2023-04-24T09:14:45;15.90;91.20
770;DHT22;368;48.698;9.116;2023-04-24T09:17:12;15.40;91.20
770;DHT22;368;48.698;9.116;2023-04-24T09:19:40;14.20;90.80
770;DHT22;368;48.698;9.116;2023-04-24T09:22:07;12.70;93.00
770;DHT22;368;48.698;9.116;2023-04-24T09:24:38;11.90;93.40
770;DHT22;368;48.698;9.116;2023-04-24T09:27:05;13.90;91.30
770;DHT22;368;48.698;9.116;2023-04-24T09:29:33;13.90;90.20
770;DHT22;368;48.698;9.116;2023-04-24T09:32:18;14.70;90.10
770;DHT22;368;48.698;9.116;2023-04-24T09:34:47;16.10;87.10
770;DHT22;368;48.698;9.116;2023-04-24T09:37:27;15.70;84.00
770;DHT22;368;48.698;9.116;2023-04-24T09:40:09;16.30;79.40
770;DHT22;368;48.698;9.116;2023-04-24T09:42:37;16.20;76.00
770;DHT22;368;48.698;9.116;2023-04-24T09:45:08;15.80;80.00
770;DHT22;368;48.698;9.116;2023-04-24T09:47:36;15.80;77.60
770;DHT22;368;48.698;9.116;2023-04-24T09:50:10;15.00;80.00
770;DHT22;368;48.698;9.116;2023-04-24T09:52:40;15.80;76.00
770;DHT22;368;48.698;9.116;2023-04-24T09:55:13;15.80;75.60
770;DHT22;368;48.698;9.116;2023-04-24T09:57:50;15.80;78.50
770;DHT22;368;48.698;9.116;2023-04-24T10:00:19;15.30;76.20
770;DHT22;368;48.698;9.116;2023-04-24T10:02:50;13.90;77.10
770;DHT22;368;48.698;9.116;2023-04-24T10:05:18;13.00;80.70
770;DHT22;368;48.698;9.116;2023-04-24T10:07:45;12.80;82.50
770;DHT22;368;48.698;9.116;2023-04-24T10:10:13;14.10;81.20
770;DHT22;368;48.698;9.116;2023-04-24T10:12:40;15.40;80.70
770;DHT22;368;48.698;9.116;2023-04-24T10:15:10;16.10;78.50
770;DHT22;368;48.698;9.116;2023-04-24T10:17:39;16.80;75.10
770;DHT22;368;48.698;9.116;2023-04-24T10:20:07;17.20;75.20
770;DHT22;368;48.698;9.116;2023-04-24T10:22:35;16.60;70.50
770;DHT22;368;48.698;9.116;2023-04-24T10:25:04;16.60;72.30
770;DHT22;368;48.698;9.116;2023-04-24T10:27:34;17.80;71.50
770;DHT22;368;48.698;9.116;2023-04-24T10:30:01;16.60;71.60
770;DHT22;368;48.698;9.116;2023-04-24T10:32:28;15.90;73.20
770;DHT22;368;48.698;9.116;2023-04-24T10:34:55;14.80;73.90
770;DHT22;368;48.698;9.116;2023-04-24T10:37:23;14.30;76.90
770;DHT22;368;48.698;9.116;2023-04-24T10:39:50;13.80;78.30
770;DHT22;368;48.698;9.116;2023-04-24T10:42:20;13.10;80.30
770;DHT22;368;48.698;9.116;2023-04-24T10:44:48;13.60;80.40
770;DHT22;368;48.698;9.116;2023-04-24T10:47:15;13.20;81.10
770;DHT22;368;48.698;9.116;2023-04-24T10:49:42;13.80;82.20
770;DHT22;368;48.698;9.116;2023-04-24T10:52:09;13.30;81.50
770;DHT22;368;48.698;9.116;2023-04-24T10:54:42;13.40;82.10
770;DHT22;368;48.698;9.116;2023-04-24T10:57:27;13.30;82.70
770;DHT22;368;48.698;9.116;2023-04-24T11:00:19;14.00;82.00
770;DHT22;368;48.698;9.116;2023-04-24T11:02:47;13.80;80.90
770;DHT22;368;48.698;9.116;2023-04-24T11:05:19;13.20;80.70
770;DHT22;368;48.698;9.116;2023-04-24T11:08:11;12.80;82.40
770;DHT22;368;48.698;9.116;2023-04-24T11:10:39;12.50;83.20
770;DHT22;368;48.698;9.116;2023-04-24T11:13:06;13.10;83.40
770;DHT22;368;48.698;9.116;2023-04-24T11:15:35;13.40;83.80
770;DHT22;368;48.698;9.116;2023-04-24T11:18:02;13.90;83.60
770;DHT22;368;48.698;9.116;2023-04-24T11:20:29;14.40;82.40
770;DHT22;368;48.698;9.116;2023-04-24T11:22:58;13.80;82.60
770;DHT22;368;48.698;9.116;2023-04-24T11:25:30;12.70;83.20
770;DHT22;368;48.698;9.116;2023-04-24T11:28:04;12.60;84.50
770;DHT22;368;48.698;9.116;2023-04-24T11:30:32;12.70;84.70
770;DHT22;368;48.698;9.116;2023-04-24T11:33:03;13.20;85.90
770;DHT22;368;48.698;9.116;2023-04-24T11:35:35;13.50;83.40
770;DHT22;368;48.698;9.116;2023-04-24T11:38:03;13.40;84.60
770;DHT22;368;48.698;9.116;2023-04-24T11:40:31;12.10;86.40
770;DHT22;368;48.698;9.116;2023-04-24T11:43:00;11.60;88.40
770;DHT22;368;48.698;9.116;2023-04-24T11:45:28;11.70;89.80
770;DHT22;368;48.698;9.116;2023-04-24T11:47:55;11.70;90.70
770;DHT22;368;48.698;9.116;2023-04-24T11:50:25;12.10;89.60
770;DHT22;368;48.698;9.116;2023-04-24T11:52:53;12.00;89.40
770;DHT22;368;48.698;9.116;2023-04-24T11:55:25;11.90;88.80
770;DHT22;368;48.698;9.116;2023-04-24T11:57:54;12.60;88.20
770;DHT22;368;48.698;9.116;2023-04-24T12:00:24;13.60;86.50
770;DHT22;368;48.698;9.116;2023-04-24T12:02:52;13.50;86.60
770;DHT22;368;48.698;9.116;2023-04-24T12:05:30;13.80;87.40
770;DHT22;368;48.698;9.116;2023-04-24T12:07:57;13.80;85.20
770;DHT22;368;48.698;9.116;2023-04-24T12:10:25;13.40;85.40
770;DHT22;368;48.698;9.116;2023-04-24T12:12:53;13.00;87.50
770;DHT22;368;48.698;9.116;2023-04-24T12:15:20;12.30;87.80
770;DHT22;368;48.698;9.116;2023-04-24T12:17:49;12.20;89.80
770;DHT22;368;48.698;9.116;2023-04-24T12:20:17;12.00;90.20
770;DHT22;368;48.698;9.116;2023-04-24T12:22:46;12.30;90.20
770;DHT22;368;48.698;9.116;2023-04-24T12:25:14;11.90;89.10
770;DHT22;368;48.698;9.116;2023-04-24T12:27:41;11.90;89.50
770;DHT22;368;48.698;9.116;2023-04-24T12:30:12;11.90;88.10
770;DHT22;368;48.698;9.116;2023-04-24T12:32:43;11.90;89.20
770;DHT22;368;48.698;9.116;2023-04-24T12:35:10;12.60;88.50
770;DHT22;368;48.698;9.116;2023-04-24T12:37:37;12.90;89.00
770;DHT22;368;48.698;9.116;2023-04-24T12:40:09;12.70;89.10
770;DHT22;368;48.698;9.116;2023-04-24T12:42:42;12.40;89.20
770;DHT22;368;48.698;9.116;2023-04-24T12:45:09;12.30;89.70
770;DHT22;368;48.698;9.116;2023-04-24T12:47:38;12.10;89.80
770;DHT22;368;48.698;9.116;2023-04-24T12:50:07;11.90;90.20
770;DHT22;368;48.698;9.116;2023-04-24T12:52:34;12.00;90.40
770;DHT22;368;48.698;9.116;2023-04-24T12:55:01;11.90;90.50
770;DHT22;368;48.698;9.116;2023-04-24T12:57:30;11.90;90.40
770;DHT22;368;48.698;9.116;2023-04-24T12:59:58;11.50;90.30
770;DHT22;368;48.698;9.116;2023-04-24T13:02:26;11.40;91.10
770;DHT22;368;48.698;9.116;2023-04-24T13:04:53;11.50;91.50
770;DHT22;368;48.698;9.116;2023-04-24T13:07:20;11.30;91.60
770;DHT22;368;48.698;9.116;2023-04-24T13:09:48;11.00;92.40
770;DHT22;368;48.698;9.116;2023-04-24T13:12:15;11.10;92.90
770;DHT22;368;48.698;9.116;2023-04-24T13:14:44;11.00;94.60
770;DHT22;368;48.698;9.116;2023-04-24T13:17:11;11.20;96.10
770;DHT22;368;48.698;9.116;2023-04-24T13:19:40;12.00;94.60
770;DHT22;368;48.698;9.116;2023-04-24T13:22:08;12.30;92.90
770;DHT22;368;48.698;9.116;2023-04-24T13:24:35;12.60;93.00
770;DHT22;368;48.698;9.116;2023-04-24T13:27:03;12.70;92.10
770;DHT22;368;48.698;9.116;2023-04-24T13:29:30;13.00;91.30
770;DHT22;368;48.698;9.116;2023-04-24T13:31:58;12.70;90.80
770;DHT22;368;48.698;9.116;2023-04-24T13:34:26;12.20;90.00
770;DHT22;368;48.698;9.116;2023-04-24T13:36:54;12.00;91.50
770;DHT22;368;48.698;9.116;2023-04-24T13:39:21;11.70;91.50
770;DHT22;368;48.698;9.116;2023-04-24T13:41:48;11.30;92.30
770;DHT22;368;48.698;9.116;2023-04-24T13:44:15;11.10;93.10
770;DHT22;368;48.698;9.116;2023-04-24T13:46:44;11.20;94.20
770;DHT22;368;48.698;9.116;2023-04-24T13:49:13;10.70;93.80
770;DHT22;368;48.698;9.116;2023-04-24T13:51:40;10.40;94.70
770;DHT22;368;48.698;9.116;2023-04-24T13:54:07;10.50;96.80
770;DHT22;368;48.698;9.116;2023-04-24T13:56:34;10.80;96.90
770;DHT22;368;48.698;9.116;2023-04-24T13:59:01;11.10;95.90
770;DHT22;368;48.698;9.116;2023-04-24T14:01:28;11.60;95.90
770;DHT22;368;48.698;9.116;2023-04-24T14:03:55;11.50;94.90
770;DHT22;368;48.698;9.116;2023-04-24T14:06:23;11.50;94.10
770;DHT22;368;48.698;9.116;2023-04-24T14:08:51;11.60;94.50
770;DHT22;368;48.698;9.116;2023-04-24T14:11:18;11.30;94.40
770;DHT22;368;48.698;9.116;2023-04-24T14:13:45;11.20;93.90
770;DHT22;368;48.698;9.116;2023-04-24T14:16:12;11.20;94.30
770;DHT22;368;48.698;9.116;2023-04-24T14:18:39;11.30;94.50
770;DHT22;368;48.698;9.116;2023-04-24T14:21:06;11.50;94.40
770;DHT22;368;48.698;9.116;2023-04-24T14:23:34;11.50;94.60
770;DHT22;368;48.698;9.116;2023-04-24T14:26:02;10.80;96.40
770;DHT22;368;48.698;9.116;2023-04-24T14:28:29;10.40;99.90
770;DHT22;368;48.698;9.116;2023-04-24T14:30:56;10.10;99.90
770;DHT22;368;48.698;9.116;2023-04-24T14:33:23;10.10;99.90
770;DHT22;368;48.698;9.116;2023-04-24T14:35:50;10.90;99.90
770;DHT22;368;48.698;9.116;2023-04-24T14:38:16;12.80;99.90
770;DHT22;368;48.698;9.116;2023-04-24T14:40:44;13.90;99.90
770;DHT22;368;48.698;9.116;2023-04-24T14:43:11;14.60;97.90
770;DHT22;368;48.698;9.116;2023-04-24T14:45:38;13.60;98.40
770;DHT22;368;48.698;9.116;2023-04-24T14:48:06;13.00;99.90
770;DHT22;368;48.698;9.116;2023-04-24T14:50:33;12.40;99.90
770;DHT22;368;48.698;9.116;2023-04-24T14:53:00;12.40;99.90
770;DHT22;368;48.698;9.116;2023-04-24T14:55:28;12.20;99.90
770;DHT22;368;48.698;9.116;2023-04-24T14:57:56;14.40;99.00
770;DHT22;368;48.698;9.116;2023-04-24T15:00:23;14.70;94.70
770;DHT22;368;48.698;9.116;2023-04-24T15:02:49;14.50;96.30
770;DHT22;368;48.698;9.116;2023-04-24T15:05:16;13.50;95.40
770;DHT22;368;48.698;9.116;2023-04-24T15:07:43;12.70;96.10
770;DHT22;368;48.698;9.116;2023-04-24T15:10:11;12.00;97.20
770;DHT22;368;48.698;9.116;2023-04-24T15:12:37;12.10;97.90
770;DHT22;368;48.698;9.116;2023-04-24T15:15:08;11.70;97.50
770;DHT22;368;48.698;9.116;2023-04-24T15:17:35;11.60;95.90
770;DHT22;368;48.698;9.116;2023-04-24T15:20:02;11.40;95.40
770;DHT22;368;48.698;9.116;2023-04-24T15:22:31;11.40;95.40
770;DHT22;368;48.698;9.116;2023-04-24T15:24:58;11.40;95.20
770;DHT22;368;48.698;9.116;2023-04-24T15:27:26;11.50;95.50
770;DHT22;368;48.698;9.116;2023-04-24T15:29:53;11.40;94.50
770;DHT22;368;48.698;9.116;2023-04-24T15:32:21;11.30;94.70
770;DHT22;368;48.698;9.116;2023-04-24T15:34:48;11.30;95.00
770;DHT22;368;48.698;9.116;2023-04-24T15:37:15;11.30;95.60
770;DHT22;368;48.698;9.116;2023-04-24T15:39:44;11.00;95.60
770;DHT22;368;48.698;9.116;2023-04-24T15:42:11;11.10;95.70
770;DHT22;368;48.698;9.116;2023-04-24T15:44:38;10.80;96.50
770;DHT22;368;48.698;9.116;2023-04-24T15:47:05;10.80;97.70
770;DHT22;368;48.698;9.116;2023-04-24T15:49:33;11.00;99.90
770;DHT22;368;48.698;9.116;2023-04-24T15:52:00;10.70;99.80
770;DHT22;368;48.698;9.116;2023-04-24T15:54:26;11.00;99.80
770;DHT22;368;48.698;9.116;2023-04-24T15:56:53;10.80;99.90
770;DHT22;368;48.698;9.116;2023-04-24T15:59:20;11.00;99.90
770;DHT22;368;48.698;9.116;2023-04-24T16:01:47;11.00;99.90
770;DHT22;368;48.698;9.116;2023-04-24T16:04:14;10.90;99.90
770;DHT22;368;48.698;9.116;2023-04-24T16:06:42;11.10;99.90
770;DHT22;368;48.698;9.116;2023-04-24T16:09:09;11.80;99.70
770;DHT22;368;48.698;9.116;2023-04-24T16:11:38;12.00;98.60
770;DHT22;368;48.698;9.116;2023-04-24T16:14:04;12.00;98.50
770;DHT22;368;48.698;9.116;2023-04-24T16:16:32;11.70;96.60
770;DHT22;368;48.698;9.116;2023-04-24T16:18:58;11.60;96.40
770;DHT22;368;48.698;9.116;2023-04-24T16:21:25;11.40;96.50
770;DHT22;368;48.698;9.116;2023-04-24T16:23:53;11.30;96.60
770;DHT22;368;48.698;9.116;2023-04-24T16:26:20;11.50;96.90
770;DHT22;368;48.698;9.116;2023-04-24T16:28:47;11.50;96.60
770;DHT22;368;48.698;9.116;2023-04-24T16:31:14;11.40;96.00
770;DHT22;368;48.698;9.116;2023-04-24T16:33:41;11.20;96.60
770;DHT22;368;48.698;9.116;2023-04-24T16:36:07;11.60;96.10
770;DHT22;368;48.698;9.116;2023-04-24T16:38:34;11.30;95.50
770;DHT22;368;48.698;9.116;2023-04-24T16:41:03;11.40;95.80
770;DHT22;368;48.698;9.116;2023-04-24T16:43:29;11.30;96.20